首页
METAR-TAF:

METAR-TAF

机场 :

鲁昂, 法国

纬度: 49-23N, 经度: 001-11E, 海拔: 157米

当前天气观测

该预报发布于26分钟前的20:30 UTC
风速13节,风向北转西北
温度 11°C
湿度 87%
气压 1009 hPa
能见度10公里或以上
多云层高于1900英尺
阴天层高于2700英尺

METAR: LFOP 262030Z AUTO 33013KT 9999 BKN019 OVC027 11/09 Q1009

时间: 22:56 (20:56 UTC)

预报

该预报发布于2小时和21分钟前的18:35 UTC
预报有效从26日的 18点(UTC)到 27日的 18点(UTC)
风速17节,风向西北,有时为27节阵风
能见度10公里或以上
阴天层高于2500英尺
短暂存在
从 26日的 18点(UTC)到 27日的 06点(UTC)
能見度: 4000
多云层高于900英尺
多云层高于2500英尺, 塔状积云.
阵雨
短暂存在
从 27日的 06点(UTC)到 27日的 18点(UTC)
能見度: 3000
多云层高于800英尺
阴天层高于1500英尺

TAF: LFOP 261835Z 2618/2718 32017G27KT 9999 OVC025 TEMPO 2618/2706 4000 SHRA BKN009 BKN025TCU TEMPO 2706/2718 3000 RA BKN008 OVC015

超过4000个机场的气象观测和天气预报(METAR&TAF报告)。

可查询的气象台以黄色和红色小点在地图上表示。

将鼠标移到小点上方,可查看气象台名称。

然后点击查看天气观测和预报。

如需切换地图:点击带黑十字的绿色按钮放大地图;点击带横线的绿色按钮缩小地图;或者点击绿色箭头查看邻近地区的地图。


METAR-TAF: